sensor_id;sensor_type;location;lat;lon;timestamp;temperature;humidity
780;DHT22;373;49.342;8.146;2023-06-26T00:02:00;23.30;1.00
780;DHT22;373;49.342;8.146;2023-06-26T00:04:28;23.20;1.00
780;DHT22;373;49.342;8.146;2023-06-26T00:06:55;23.20;1.00
780;DHT22;373;49.342;8.146;2023-06-26T00:09:22;23.20;1.00
780;DHT22;373;49.342;8.146;2023-06-26T00:11:51;23.30;1.00
780;DHT22;373;49.342;8.146;2023-06-26T00:14:18;23.30;1.00
780;DHT22;373;49.342;8.146;2023-06-26T00:16:46;23.30;1.00
780;DHT22;373;49.342;8.146;2023-06-26T00:19:15;23.20;1.00
780;DHT22;373;49.342;8.146;2023-06-26T00:21:45;23.10;1.00
780;DHT22;373;49.342;8.146;2023-06-26T00:24:13;23.10;1.00
780;DHT22;373;49.342;8.146;2023-06-26T00:26:40;23.10;1.00
780;DHT22;373;49.342;8.146;2023-06-26T00:29:09;23.10;1.00
780;DHT22;373;49.342;8.146;2023-06-26T00:31:36;23.10;1.00
780;DHT22;373;49.342;8.146;2023-06-26T00:34:06;23.10;1.00
780;DHT22;373;49.342;8.146;2023-06-26T00:36:33;22.90;1.00
780;DHT22;373;49.342;8.146;2023-06-26T00:39:00;23.10;1.00
780;DHT22;373;49.342;8.146;2023-06-26T00:41:27;23.20;1.00
780;DHT22;373;49.342;8.146;2023-06-26T00:43:54;23.20;1.00
780;DHT22;373;49.342;8.146;2023-06-26T00:46:23;23.20;1.00
780;DHT22;373;49.342;8.146;2023-06-26T00:48:52;23.10;1.00
780;DHT22;373;49.342;8.146;2023-06-26T00:51:20;23.20;1.00
780;DHT22;373;49.342;8.146;2023-06-26T00:53:50;23.20;1.00
780;DHT22;373;49.342;8.146;2023-06-26T00:56:18;23.10;1.00
780;DHT22;373;49.342;8.146;2023-06-26T00:58:45;23.10;1.00
780;DHT22;373;49.342;8.146;2023-06-26T01:01:13;23.10;1.00
780;DHT22;373;49.342;8.146;2023-06-26T01:03:44;23.30;1.00
780;DHT22;373;49.342;8.146;2023-06-26T01:06:13;23.30;1.00
780;DHT22;373;49.342;8.146;2023-06-26T01:08:41;23.30;1.00
780;DHT22;373;49.342;8.146;2023-06-26T01:11:10;23.50;1.00
780;DHT22;373;49.342;8.146;2023-06-26T01:13:38;23.50;1.00
780;DHT22;373;49.342;8.146;2023-06-26T01:16:06;23.70;1.00
780;DHT22;373;49.342;8.146;2023-06-26T01:18:35;23.80;1.00
780;DHT22;373;49.342;8.146;2023-06-26T01:21:11;23.80;1.00
780;DHT22;373;49.342;8.146;2023-06-26T01:23:56;24.00;1.00
780;DHT22;373;49.342;8.146;2023-06-26T01:26:29;24.00;1.00
780;DHT22;373;49.342;8.146;2023-06-26T01:28:58;24.10;1.00
780;DHT22;373;49.342;8.146;2023-06-26T01:31:27;24.10;1.00
780;DHT22;373;49.342;8.146;2023-06-26T01:33:57;24.10;1.00
780;DHT22;373;49.342;8.146;2023-06-26T01:36:25;24.10;1.00
780;DHT22;373;49.342;8.146;2023-06-26T01:38:52;24.10;1.00
780;DHT22;373;49.342;8.146;2023-06-26T01:41:19;24.00;1.00
780;DHT22;373;49.342;8.146;2023-06-26T01:44:11;24.00;1.00
780;DHT22;373;49.342;8.146;2023-06-26T01:46:47;23.90;1.00
780;DHT22;373;49.342;8.146;2023-06-26T01:49:24;23.70;1.00
780;DHT22;373;49.342;8.146;2023-06-26T01:52:00;23.30;1.00
780;DHT22;373;49.342;8.146;2023-06-26T01:54:30;23.30;1.00
780;DHT22;373;49.342;8.146;2023-06-26T01:57:00;23.30;1.00
780;DHT22;373;49.342;8.146;2023-06-26T01:59:32;23.30;1.00
780;DHT22;373;49.342;8.146;2023-06-26T02:02:01;23.00;1.00
780;DHT22;373;49.342;8.146;2023-06-26T02:04:28;23.20;1.00
780;DHT22;373;49.342;8.146;2023-06-26T02:06:56;23.40;1.00
780;DHT22;373;49.342;8.146;2023-06-26T02:09:23;23.40;1.00
780;DHT22;373;49.342;8.146;2023-06-26T02:11:50;23.50;1.00
780;DHT22;373;49.342;8.146;2023-06-26T02:14:17;23.70;1.00
780;DHT22;373;49.342;8.146;2023-06-26T02:16:45;23.90;1.00
780;DHT22;373;49.342;8.146;2023-06-26T02:19:12;24.10;1.00
780;DHT22;373;49.342;8.146;2023-06-26T02:21:47;24.00;1.00
780;DHT22;373;49.342;8.146;2023-06-26T02:24:15;23.90;1.00
780;DHT22;373;49.342;8.146;2023-06-26T02:26:43;23.50;1.00
780;DHT22;373;49.342;8.146;2023-06-26T02:29:11;23.50;1.00
780;DHT22;373;49.342;8.146;2023-06-26T02:31:39;23.60;1.00
780;DHT22;373;49.342;8.146;2023-06-26T02:34:08;23.60;1.00
780;DHT22;373;49.342;8.146;2023-06-26T02:36:35;23.60;1.00
780;DHT22;373;49.342;8.146;2023-06-26T02:39:04;23.70;1.00
780;DHT22;373;49.342;8.146;2023-06-26T02:41:33;23.70;1.00
780;DHT22;373;49.342;8.146;2023-06-26T02:44:00;23.60;1.00
780;DHT22;373;49.342;8.146;2023-06-26T02:46:28;23.50;1.00
780;DHT22;373;49.342;8.146;2023-06-26T02:48:56;23.40;1.00
780;DHT22;373;49.342;8.146;2023-06-26T02:51:24;23.10;1.00
780;DHT22;373;49.342;8.146;2023-06-26T02:53:53;22.90;1.10
780;DHT22;373;49.342;8.146;2023-06-26T02:56:20;22.90;4.20
780;DHT22;373;49.342;8.146;2023-06-26T02:58:47;22.70;7.70
780;DHT22;373;49.342;8.146;2023-06-26T03:01:15;22.80;12.80
780;DHT22;373;49.342;8.146;2023-06-26T03:03:42;23.10;9.80
780;DHT22;373;49.342;8.146;2023-06-26T03:06:16;23.20;7.30
780;DHT22;373;49.342;8.146;2023-06-26T03:08:45;23.30;5.40
780;DHT22;373;49.342;8.146;2023-06-26T03:11:14;23.50;4.00
780;DHT22;373;49.342;8.146;2023-06-26T03:13:41;23.60;1.60
780;DHT22;373;49.342;8.146;2023-06-26T03:16:08;23.70;1.00
780;DHT22;373;49.342;8.146;2023-06-26T03:18:35;23.60;1.00
780;DHT22;373;49.342;8.146;2023-06-26T03:21:03;23.20;2.80
780;DHT22;373;49.342;8.146;2023-06-26T03:23:30;23.00;8.40
780;DHT22;373;49.342;8.146;2023-06-26T03:25:59;22.40;21.20
780;DHT22;373;49.342;8.146;2023-06-26T03:28:29;21.70;81.30
780;DHT22;373;49.342;8.146;2023-06-26T03:30:58;21.90;92.50
780;DHT22;373;49.342;8.146;2023-06-26T03:33:25;22.30;74.00
780;DHT22;373;49.342;8.146;2023-06-26T03:35:54;22.60;48.50
780;DHT22;373;49.342;8.146;2023-06-26T03:38:21;22.80;43.90
780;DHT22;373;49.342;8.146;2023-06-26T03:40:51;22.60;39.80
780;DHT22;373;49.342;8.146;2023-06-26T03:43:20;22.80;40.10
780;DHT22;373;49.342;8.146;2023-06-26T03:46:13;22.90;36.20
780;DHT22;373;49.342;8.146;2023-06-26T03:48:40;23.20;28.00
780;DHT22;373;49.342;8.146;2023-06-26T03:51:08;23.30;22.40
780;DHT22;373;49.342;8.146;2023-06-26T03:53:35;23.40;20.40
780;DHT22;373;49.342;8.146;2023-06-26T03:56:02;23.50;17.40
780;DHT22;373;49.342;8.146;2023-06-26T03:58:31;23.60;16.80
780;DHT22;373;49.342;8.146;2023-06-26T04:00:58;23.50;14.40
780;DHT22;373;49.342;8.146;2023-06-26T04:03:27;23.40;16.40
780;DHT22;373;49.342;8.146;2023-06-26T04:06:01;23.20;21.20
780;DHT22;373;49.342;8.146;2023-06-26T04:08:28;23.20;24.80
780;DHT22;373;49.342;8.146;2023-06-26T04:10:56;23.30;29.40
780;DHT22;373;49.342;8.146;2023-06-26T04:13:24;23.10;27.10
780;DHT22;373;49.342;8.146;2023-06-26T04:15:53;22.90;36.70
780;DHT22;373;49.342;8.146;2023-06-26T04:18:20;23.30;28.50
780;DHT22;373;49.342;8.146;2023-06-26T04:21:07;23.40;21.60
780;DHT22;373;49.342;8.146;2023-06-26T04:23:35;22.50;42.50
780;DHT22;373;49.342;8.146;2023-06-26T04:26:02;22.60;75.10
780;DHT22;373;49.342;8.146;2023-06-26T04:28:30;22.40;85.20
780;DHT22;373;49.342;8.146;2023-06-26T04:30:59;22.70;84.90
780;DHT22;373;49.342;8.146;2023-06-26T04:33:26;22.50;82.10
780;DHT22;373;49.342;8.146;2023-06-26T04:35:53;22.70;72.90
780;DHT22;373;49.342;8.146;2023-06-26T04:38:21;23.20;52.70
780;DHT22;373;49.342;8.146;2023-06-26T04:40:48;23.60;38.50
780;DHT22;373;49.342;8.146;2023-06-26T04:43:15;23.30;45.00
780;DHT22;373;49.342;8.146;2023-06-26T04:45:43;23.10;57.20
780;DHT22;373;49.342;8.146;2023-06-26T04:48:11;23.20;65.60
780;DHT22;373;49.342;8.146;2023-06-26T04:50:39;23.30;69.50
780;DHT22;373;49.342;8.146;2023-06-26T04:53:06;23.30;86.80
780;DHT22;373;49.342;8.146;2023-06-26T04:55:33;23.70;93.00
780;DHT22;373;49.342;8.146;2023-06-26T04:58:00;24.10;70.20
780;DHT22;373;49.342;8.146;2023-06-26T05:00:27;24.20;81.10
780;DHT22;373;49.342;8.146;2023-06-26T05:02:54;23.90;85.10
780;DHT22;373;49.342;8.146;2023-06-26T05:05:28;23.90;91.40
780;DHT22;373;49.342;8.146;2023-06-26T05:07:55;23.20;94.40
780;DHT22;373;49.342;8.146;2023-06-26T05:10:23;22.60;99.90
780;DHT22;373;49.342;8.146;2023-06-26T05:12:50;22.90;99.90
780;DHT22;373;49.342;8.146;2023-06-26T05:15:17;22.60;99.90
780;DHT22;373;49.342;8.146;2023-06-26T05:17:44;22.60;99.90
780;DHT22;373;49.342;8.146;2023-06-26T05:20:12;23.10;99.90
780;DHT22;373;49.342;8.146;2023-06-26T05:22:41;23.60;99.90
780;DHT22;373;49.342;8.146;2023-06-26T05:25:09;23.40;99.90
780;DHT22;373;49.342;8.146;2023-06-26T05:27:37;22.90;99.90
780;DHT22;373;49.342;8.146;2023-06-26T05:30:05;22.80;99.90
780;DHT22;373;49.342;8.146;2023-06-26T05:32:34;22.60;99.90
780;DHT22;373;49.342;8.146;2023-06-26T05:35:02;23.20;99.90
780;DHT22;373;49.342;8.146;2023-06-26T05:37:31;24.00;99.90
780;DHT22;373;49.342;8.146;2023-06-26T05:40:01;24.60;99.90
780;DHT22;373;49.342;8.146;2023-06-26T05:42:33;24.50;96.60
780;DHT22;373;49.342;8.146;2023-06-26T05:45:00;25.10;91.30
780;DHT22;373;49.342;8.146;2023-06-26T05:47:27;25.60;61.10
780;DHT22;373;49.342;8.146;2023-06-26T05:49:55;25.90;44.10
780;DHT22;373;49.342;8.146;2023-06-26T05:52:22;26.00;33.20
780;DHT22;373;49.342;8.146;2023-06-26T05:54:50;26.20;29.70
780;DHT22;373;49.342;8.146;2023-06-26T05:57:19;25.70;23.00
780;DHT22;373;49.342;8.146;2023-06-26T05:59:46;26.10;23.30
780;DHT22;373;49.342;8.146;2023-06-26T06:02:14;26.80;12.60
780;DHT22;373;49.342;8.146;2023-06-26T06:04:41;26.90;8.00
780;DHT22;373;49.342;8.146;2023-06-26T06:07:08;26.70;6.30
780;DHT22;373;49.342;8.146;2023-06-26T06:09:35;27.10;5.00
780;DHT22;373;49.342;8.146;2023-06-26T06:12:03;26.90;3.40
780;DHT22;373;49.342;8.146;2023-06-26T06:14:32;26.90;4.00
780;DHT22;373;49.342;8.146;2023-06-26T06:16:59;27.00;5.50
780;DHT22;373;49.342;8.146;2023-06-26T06:19:27;26.90;5.10
780;DHT22;373;49.342;8.146;2023-06-26T06:21:54;27.00;4.40
780;DHT22;373;49.342;8.146;2023-06-26T06:24:21;27.00;2.10
780;DHT22;373;49.342;8.146;2023-06-26T06:26:48;27.10;1.80
780;DHT22;373;49.342;8.146;2023-06-26T06:29:15;27.20;1.00
780;DHT22;373;49.342;8.146;2023-06-26T06:31:45;27.40;1.00
780;DHT22;373;49.342;8.146;2023-06-26T06:34:13;27.50;1.00
780;DHT22;373;49.342;8.146;2023-06-26T06:36:40;27.70;1.00
780;DHT22;373;49.342;8.146;2023-06-26T06:39:08;28.00;1.00
780;DHT22;373;49.342;8.146;2023-06-26T06:41:36;27.70;1.00
780;DHT22;373;49.342;8.146;2023-06-26T06:44:12;27.90;1.00
780;DHT22;373;49.342;8.146;2023-06-26T06:46:58;28.00;1.00
780;DHT22;373;49.342;8.146;2023-06-26T06:49:27;28.20;1.00
780;DHT22;373;49.342;8.146;2023-06-26T06:51:58;27.90;1.00
780;DHT22;373;49.342;8.146;2023-06-26T06:54:26;27.70;1.00
780;DHT22;373;49.342;8.146;2023-06-26T06:56:55;27.70;1.00
780;DHT22;373;49.342;8.146;2023-06-26T06:59:24;27.60;1.00
780;DHT22;373;49.342;8.146;2023-06-26T07:01:59;28.00;1.00
780;DHT22;373;49.342;8.146;2023-06-26T07:04:32;28.50;1.00
780;DHT22;373;49.342;8.146;2023-06-26T07:07:00;28.90;1.00
780;DHT22;373;49.342;8.146;2023-06-26T07:09:51;29.00;1.00
780;DHT22;373;49.342;8.146;2023-06-26T07:12:28;28.90;1.00
780;DHT22;373;49.342;8.146;2023-06-26T07:15:17;29.50;1.00
780;DHT22;373;49.342;8.146;2023-06-26T07:18:04;30.20;1.00
780;DHT22;373;49.342;8.146;2023-06-26T07:21:01;30.40;1.00
780;DHT22;373;49.342;8.146;2023-06-26T07:23:31;30.50;1.00
780;DHT22;373;49.342;8.146;2023-06-26T07:26:01;30.20;1.00
780;DHT22;373;49.342;8.146;2023-06-26T07:28:35;29.90;1.00
780;DHT22;373;49.342;8.146;2023-06-26T07:31:03;30.50;1.00
780;DHT22;373;49.342;8.146;2023-06-26T07:33:44;31.00;1.00
780;DHT22;373;49.342;8.146;2023-06-26T07:36:11;30.80;1.00
780;DHT22;373;49.342;8.146;2023-06-26T07:41:32;31.20;1.00
780;DHT22;373;49.342;8.146;2023-06-26T07:44:02;31.50;1.00
780;DHT22;373;49.342;8.146;2023-06-26T07:46:29;31.40;1.00
780;DHT22;373;49.342;8.146;2023-06-26T07:49:03;31.20;1.00
780;DHT22;373;49.342;8.146;2023-06-26T07:51:31;30.80;1.00
780;DHT22;373;49.342;8.146;2023-06-26T07:53:58;30.80;1.00
780;DHT22;373;49.342;8.146;2023-06-26T07:56:35;30.80;1.00
780;DHT22;373;49.342;8.146;2023-06-26T07:59:28;31.10;1.00
780;DHT22;373;49.342;8.146;2023-06-26T08:02:01;31.40;1.00
780;DHT22;373;49.342;8.146;2023-06-26T08:04:30;31.90;1.00
780;DHT22;373;49.342;8.146;2023-06-26T08:06:58;31.70;1.00
780;DHT22;373;49.342;8.146;2023-06-26T08:09:41;31.20;1.00
780;DHT22;373;49.342;8.146;2023-06-26T08:12:09;30.50;1.00
780;DHT22;373;49.342;8.146;2023-06-26T08:14:46;30.30;1.00
780;DHT22;373;49.342;8.146;2023-06-26T08:17:27;30.70;1.00
780;DHT22;373;49.342;8.146;2023-06-26T08:20:06;31.00;1.00
780;DHT22;373;49.342;8.146;2023-06-26T08:23:00;31.10;1.00
780;DHT22;373;49.342;8.146;2023-06-26T08:25:37;31.00;1.00
780;DHT22;373;49.342;8.146;2023-06-26T08:28:18;30.50;1.00
780;DHT22;373;49.342;8.146;2023-06-26T08:30:47;29.90;1.00
780;DHT22;373;49.342;8.146;2023-06-26T08:33:18;29.50;1.00
780;DHT22;373;49.342;8.146;2023-06-26T08:35:47;29.30;1.00
780;DHT22;373;49.342;8.146;2023-06-26T08:38:17;29.10;1.00
780;DHT22;373;49.342;8.146;2023-06-26T08:40:51;29.10;1.00
780;DHT22;373;49.342;8.146;2023-06-26T08:43:30;29.30;1.00
780;DHT22;373;49.342;8.146;2023-06-26T08:45:58;28.70;1.00
780;DHT22;373;49.342;8.146;2023-06-26T08:48:34;28.40;1.00
780;DHT22;373;49.342;8.146;2023-06-26T08:51:21;28.60;1.00
780;DHT22;373;49.342;8.146;2023-06-26T08:53:57;29.10;1.00
780;DHT22;373;49.342;8.146;2023-06-26T08:56:40;28.60;1.00
780;DHT22;373;49.342;8.146;2023-06-26T08:59:22;28.80;1.00
780;DHT22;373;49.342;8.146;2023-06-26T09:01:52;29.30;1.00
780;DHT22;373;49.342;8.146;2023-06-26T09:04:24;29.50;1.00
780;DHT22;373;49.342;8.146;2023-06-26T09:07:08;29.60;1.00
780;DHT22;373;49.342;8.146;2023-06-26T09:09:44;29.80;1.00
780;DHT22;373;49.342;8.146;2023-06-26T09:12:20;29.30;1.00
780;DHT22;373;49.342;8.146;2023-06-26T09:14:58;29.10;1.00
780;DHT22;373;49.342;8.146;2023-06-26T09:17:30;29.10;1.00
780;DHT22;373;49.342;8.146;2023-06-26T09:20:28;29.30;1.00
780;DHT22;373;49.342;8.146;2023-06-26T09:23:22;29.30;1.00
780;DHT22;373;49.342;8.146;2023-06-26T09:25:54;29.40;1.00
780;DHT22;373;49.342;8.146;2023-06-26T09:28:21;29.60;1.00
780;DHT22;373;49.342;8.146;2023-06-26T09:30:49;30.20;1.00
780;DHT22;373;49.342;8.146;2023-06-26T09:33:26;30.60;1.00
780;DHT22;373;49.342;8.146;2023-06-26T09:36:20;30.20;1.00
780;DHT22;373;49.342;8.146;2023-06-26T09:38:54;30.20;1.00
780;DHT22;373;49.342;8.146;2023-06-26T09:41:22;30.70;1.00
780;DHT22;373;49.342;8.146;2023-06-26T09:43:49;31.40;1.00
780;DHT22;373;49.342;8.146;2023-06-26T09:46:24;32.00;1.00
780;DHT22;373;49.342;8.146;2023-06-26T09:49:09;32.20;1.00
780;DHT22;373;49.342;8.146;2023-06-26T09:51:48;32.40;1.00
780;DHT22;373;49.342;8.146;2023-06-26T09:54:38;32.00;1.00
780;DHT22;373;49.342;8.146;2023-06-26T09:57:10;32.00;1.00
780;DHT22;373;49.342;8.146;2023-06-26T09:59:40;31.60;1.00
780;DHT22;373;49.342;8.146;2023-06-26T10:02:15;31.60;1.00
780;DHT22;373;49.342;8.146;2023-06-26T10:04:44;31.50;1.00
780;DHT22;373;49.342;8.146;2023-06-26T10:07:13;31.20;1.00
780;DHT22;373;49.342;8.146;2023-06-26T10:09:49;30.30;1.00
780;DHT22;373;49.342;8.146;2023-06-26T10:12:37;30.30;1.00
780;DHT22;373;49.342;8.146;2023-06-26T10:15:10;30.30;1.00
780;DHT22;373;49.342;8.146;2023-06-26T10:17:46;30.60;1.00
780;DHT22;373;49.342;8.146;2023-06-26T10:23:07;31.50;1.00
780;DHT22;373;49.342;8.146;2023-06-26T10:25:46;31.90;1.00
780;DHT22;373;49.342;8.146;2023-06-26T10:28:17;31.10;1.00
780;DHT22;373;49.342;8.146;2023-06-26T10:30:47;30.70;1.00
780;DHT22;373;49.342;8.146;2023-06-26T10:33:17;31.10;1.00
780;DHT22;373;49.342;8.146;2023-06-26T10:35:45;31.20;1.00
780;DHT22;373;49.342;8.146;2023-06-26T10:38:13;31.30;1.00
780;DHT22;373;49.342;8.146;2023-06-26T10:40:54;31.20;1.00
780;DHT22;373;49.342;8.146;2023-06-26T10:43:31;31.60;1.00
780;DHT22;373;49.342;8.146;2023-06-26T10:45:59;31.90;1.00
780;DHT22;373;49.342;8.146;2023-06-26T10:48:29;31.80;1.00
780;DHT22;373;49.342;8.146;2023-06-26T10:50:56;31.50;1.00
780;DHT22;373;49.342;8.146;2023-06-26T10:53:25;31.80;1.00
780;DHT22;373;49.342;8.146;2023-06-26T10:55:58;31.70;1.00
780;DHT22;373;49.342;8.146;2023-06-26T10:58:30;32.10;1.00
780;DHT22;373;49.342;8.146;2023-06-26T11:01:27;32.50;1.00
780;DHT22;373;49.342;8.146;2023-06-26T11:04:06;32.20;1.00
780;DHT22;373;49.342;8.146;2023-06-26T11:09:56;32.20;1.00
780;DHT22;373;49.342;8.146;2023-06-26T11:12:39;30.90;1.00
780;DHT22;373;49.342;8.146;2023-06-26T11:15:20;30.90;1.00
780;DHT22;373;49.342;8.146;2023-06-26T11:17:48;31.30;1.00
780;DHT22;373;49.342;8.146;2023-06-26T11:20:16;31.70;1.00
780;DHT22;373;49.342;8.146;2023-06-26T11:22:43;31.90;1.00
780;DHT22;373;49.342;8.146;2023-06-26T11:25:11;32.30;1.00
780;DHT22;373;49.342;8.146;2023-06-26T11:28:09;32.50;1.00
780;DHT22;373;49.342;8.146;2023-06-26T11:30:47;32.20;1.00
780;DHT22;373;49.342;8.146;2023-06-26T11:33:14;32.20;1.00
780;DHT22;373;49.342;8.146;2023-06-26T11:35:41;32.30;1.00
780;DHT22;373;49.342;8.146;2023-06-26T11:38:12;32.80;1.00
780;DHT22;373;49.342;8.146;2023-06-26T11:40:39;32.70;1.00
780;DHT22;373;49.342;8.146;2023-06-26T11:43:09;32.80;1.00
780;DHT22;373;49.342;8.146;2023-06-26T11:45:37;32.90;1.00
780;DHT22;373;49.342;8.146;2023-06-26T11:48:05;32.40;1.00
780;DHT22;373;49.342;8.146;2023-06-26T11:50:37;32.30;1.00
780;DHT22;373;49.342;8.146;2023-06-26T11:53:04;32.90;1.00
780;DHT22;373;49.342;8.146;2023-06-26T11:55:41;32.70;1.00
780;DHT22;373;49.342;8.146;2023-06-26T11:58:24;32.90;1.00
780;DHT22;373;49.342;8.146;2023-06-26T12:00:55;33.50;1.00
780;DHT22;373;49.342;8.146;2023-06-26T12:03:26;33.10;1.00
780;DHT22;373;49.342;8.146;2023-06-26T12:06:10;32.60;1.00
780;DHT22;373;49.342;8.146;2023-06-26T12:09:04;32.30;1.00
780;DHT22;373;49.342;8.146;2023-06-26T12:11:57;32.20;1.00
780;DHT22;373;49.342;8.146;2023-06-26T12:14:28;31.90;1.00
780;DHT22;373;49.342;8.146;2023-06-26T12:17:11;31.70;1.00
780;DHT22;373;49.342;8.146;2023-06-26T12:20:02;31.60;1.00
780;DHT22;373;49.342;8.146;2023-06-26T12:22:58;31.50;1.00
780;DHT22;373;49.342;8.146;2023-06-26T12:25:50;31.90;1.00
780;DHT22;373;49.342;8.146;2023-06-26T12:28:40;32.10;1.00
780;DHT22;373;49.342;8.146;2023-06-26T12:31:36;32.60;1.00
780;DHT22;373;49.342;8.146;2023-06-26T12:34:10;32.80;1.00
780;DHT22;373;49.342;8.146;2023-06-26T12:36:41;32.20;1.00
780;DHT22;373;49.342;8.146;2023-06-26T12:39:10;32.20;1.00
780;DHT22;373;49.342;8.146;2023-06-26T12:42:03;31.80;1.00
780;DHT22;373;49.342;8.146;2023-06-26T12:44:31;31.80;1.00
780;DHT22;373;49.342;8.146;2023-06-26T12:47:05;32.20;1.00
780;DHT22;373;49.342;8.146;2023-06-26T12:49:39;31.90;1.00
780;DHT22;373;49.342;8.146;2023-06-26T12:52:18;31.80;1.00
780;DHT22;373;49.342;8.146;2023-06-26T12:55:00;32.30;1.00
780;DHT22;373;49.342;8.146;2023-06-26T12:57:29;32.60;1.00
780;DHT22;373;49.342;8.146;2023-06-26T13:00:22;32.30;1.00
780;DHT22;373;49.342;8.146;2023-06-26T13:03:04;32.00;1.00
780;DHT22;373;49.342;8.146;2023-06-26T13:05:31;31.50;1.00
780;DHT22;373;49.342;8.146;2023-06-26T13:07:58;31.80;1.00
780;DHT22;373;49.342;8.146;2023-06-26T13:10:41;32.10;1.00
780;DHT22;373;49.342;8.146;2023-06-26T13:13:11;32.00;1.00
780;DHT22;373;49.342;8.146;2023-06-26T13:15:38;31.80;1.00
780;DHT22;373;49.342;8.146;2023-06-26T13:18:07;31.50;1.00
780;DHT22;373;49.342;8.146;2023-06-26T13:20:37;31.20;1.00
780;DHT22;373;49.342;8.146;2023-06-26T13:23:12;31.30;1.00
780;DHT22;373;49.342;8.146;2023-06-26T13:25:42;31.30;1.00
780;DHT22;373;49.342;8.146;2023-06-26T13:28:09;31.60;1.00
780;DHT22;373;49.342;8.146;2023-06-26T13:30:42;31.40;1.00
780;DHT22;373;49.342;8.146;2023-06-26T13:33:14;31.60;1.00
780;DHT22;373;49.342;8.146;2023-06-26T13:35:42;31.70;1.00
780;DHT22;373;49.342;8.146;2023-06-26T13:38:09;31.60;1.00
780;DHT22;373;49.342;8.146;2023-06-26T13:40:36;31.50;1.00
780;DHT22;373;49.342;8.146;2023-06-26T13:43:04;30.60;1.00
780;DHT22;373;49.342;8.146;2023-06-26T13:45:41;30.50;1.00
780;DHT22;373;49.342;8.146;2023-06-26T13:48:29;30.70;1.00
780;DHT22;373;49.342;8.146;2023-06-26T13:50:57;31.10;1.00
780;DHT22;373;49.342;8.146;2023-06-26T13:53:24;31.20;1.00
780;DHT22;373;49.342;8.146;2023-06-26T13:55:54;31.50;1.00
780;DHT22;373;49.342;8.146;2023-06-26T13:58:31;31.00;1.00
780;DHT22;373;49.342;8.146;2023-06-26T14:01:18;30.80;1.00
780;DHT22;373;49.342;8.146;2023-06-26T14:04:14;30.80;1.00
780;DHT22;373;49.342;8.146;2023-06-26T14:06:41;30.60;1.00
780;DHT22;373;49.342;8.146;2023-06-26T14:09:10;30.30;1.00
780;DHT22;373;49.342;8.146;2023-06-26T14:11:39;30.20;1.00
780;DHT22;373;49.342;8.146;2023-06-26T14:14:06;30.70;1.00
780;DHT22;373;49.342;8.146;2023-06-26T14:16:35;31.10;1.00
780;DHT22;373;49.342;8.146;2023-06-26T14:19:02;31.40;1.00
780;DHT22;373;49.342;8.146;2023-06-26T14:21:32;31.20;1.00
780;DHT22;373;49.342;8.146;2023-06-26T14:24:06;30.80;1.00
780;DHT22;373;49.342;8.146;2023-06-26T14:26:43;30.30;1.00
780;DHT22;373;49.342;8.146;2023-06-26T14:29:21;30.20;1.00
780;DHT22;373;49.342;8.146;2023-06-26T14:31:49;30.70;1.00
780;DHT22;373;49.342;8.146;2023-06-26T14:34:16;30.50;1.00
780;DHT22;373;49.342;8.146;2023-06-26T14:36:50;30.50;1.00
780;DHT22;373;49.342;8.146;2023-06-26T14:39:40;30.30;1.00
780;DHT22;373;49.342;8.146;2023-06-26T14:42:07;30.20;1.00
780;DHT22;373;49.342;8.146;2023-06-26T14:44:41;30.10;1.00
780;DHT22;373;49.342;8.146;2023-06-26T14:47:15;30.00;1.00
780;DHT22;373;49.342;8.146;2023-06-26T14:49:56;30.20;1.00
780;DHT22;373;49.342;8.146;2023-06-26T14:52:32;30.20;1.00
780;DHT22;373;49.342;8.146;2023-06-26T14:55:08;30.20;1.00
780;DHT22;373;49.342;8.146;2023-06-26T14:57:36;30.30;1.00
780;DHT22;373;49.342;8.146;2023-06-26T15:00:10;30.30;1.00
780;DHT22;373;49.342;8.146;2023-06-26T15:02:45;30.30;1.00
780;DHT22;373;49.342;8.146;2023-06-26T15:05:18;30.20;1.00
780;DHT22;373;49.342;8.146;2023-06-26T15:07:53;29.90;1.00
780;DHT22;373;49.342;8.146;2023-06-26T15:10:22;30.20;1.00
780;DHT22;373;49.342;8.146;2023-06-26T15:12:51;30.00;1.00
780;DHT22;373;49.342;8.146;2023-06-26T15:15:32;29.80;1.00
780;DHT22;373;49.342;8.146;2023-06-26T15:18:05;29.90;1.00
780;DHT22;373;49.342;8.146;2023-06-26T15:20:37;30.00;1.00
780;DHT22;373;49.342;8.146;2023-06-26T15:23:20;30.20;1.00
780;DHT22;373;49.342;8.146;2023-06-26T15:25:53;30.00;1.00
780;DHT22;373;49.342;8.146;2023-06-26T15:28:23;29.60;1.00
780;DHT22;373;49.342;8.146;2023-06-26T15:30:51;29.20;1.00
780;DHT22;373;49.342;8.146;2023-06-26T15:33:22;29.00;1.00
780;DHT22;373;49.342;8.146;2023-06-26T15:35:53;29.30;1.00
780;DHT22;373;49.342;8.146;2023-06-26T15:38:21;29.40;1.00
780;DHT22;373;49.342;8.146;2023-06-26T15:40:48;29.00;1.00
780;DHT22;373;49.342;8.146;2023-06-26T15:43:16;28.90;1.00
780;DHT22;373;49.342;8.146;2023-06-26T15:45:50;28.80;1.00
780;DHT22;373;49.342;8.146;2023-06-26T15:48:20;29.30;1.00
780;DHT22;373;49.342;8.146;2023-06-26T15:51:02;29.30;1.00
780;DHT22;373;49.342;8.146;2023-06-26T15:53:36;29.50;1.00
780;DHT22;373;49.342;8.146;2023-06-26T15:56:17;29.70;1.00
780;DHT22;373;49.342;8.146;2023-06-26T15:59:11;29.50;1.00
780;DHT22;373;49.342;8.146;2023-06-26T16:01:53;29.50;1.00
780;DHT22;373;49.342;8.146;2023-06-26T16:04:25;29.30;1.00
780;DHT22;373;49.342;8.146;2023-06-26T16:07:11;29.40;1.00
780;DHT22;373;49.342;8.146;2023-06-26T16:09:49;29.60;1.00
780;DHT22;373;49.342;8.146;2023-06-26T16:12:29;29.10;1.00
780;DHT22;373;49.342;8.146;2023-06-26T16:14:56;28.90;1.00
780;DHT22;373;49.342;8.146;2023-06-26T16:17:23;28.80;1.00
780;DHT22;373;49.342;8.146;2023-06-26T16:19:51;28.60;1.00
780;DHT22;373;49.342;8.146;2023-06-26T16:22:24;28.60;1.00
780;DHT22;373;49.342;8.146;2023-06-26T16:24:53;28.70;1.00
780;DHT22;373;49.342;8.146;2023-06-26T16:27:20;28.60;1.00
780;DHT22;373;49.342;8.146;2023-06-26T16:29:47;28.60;1.00
780;DHT22;373;49.342;8.146;2023-06-26T16:32:18;28.50;1.00
780;DHT22;373;49.342;8.146;2023-06-26T16:34:45;28.30;1.00
780;DHT22;373;49.342;8.146;2023-06-26T16:37:12;28.10;1.00
780;DHT22;373;49.342;8.146;2023-06-26T16:39:39;28.10;1.00
780;DHT22;373;49.342;8.146;2023-06-26T16:42:08;27.90;1.00
780;DHT22;373;49.342;8.146;2023-06-26T16:44:35;28.00;1.00
780;DHT22;373;49.342;8.146;2023-06-26T16:47:14;27.90;1.00
780;DHT22;373;49.342;8.146;2023-06-26T16:49:51;27.80;1.00
780;DHT22;373;49.342;8.146;2023-06-26T16:52:18;27.90;1.00
780;DHT22;373;49.342;8.146;2023-06-26T16:54:47;27.90;1.00
780;DHT22;373;49.342;8.146;2023-06-26T16:57:16;27.90;1.00
780;DHT22;373;49.342;8.146;2023-06-26T16:59:47;28.10;1.00
780;DHT22;373;49.342;8.146;2023-06-26T17:02:19;28.00;1.00
780;DHT22;373;49.342;8.146;2023-06-26T17:04:52;28.00;1.00
780;DHT22;373;49.342;8.146;2023-06-26T17:07:19;27.80;1.00
780;DHT22;373;49.342;8.146;2023-06-26T17:09:47;27.80;1.00
780;DHT22;373;49.342;8.146;2023-06-26T17:12:16;27.70;1.00
780;DHT22;373;49.342;8.146;2023-06-26T17:14:43;27.40;1.00
780;DHT22;373;49.342;8.146;2023-06-26T17:17:10;27.40;1.00
780;DHT22;373;49.342;8.146;2023-06-26T17:19:41;27.20;1.00
780;DHT22;373;49.342;8.146;2023-06-26T17:22:08;27.20;1.00
780;DHT22;373;49.342;8.146;2023-06-26T17:24:35;27.30;1.00
780;DHT22;373;49.342;8.146;2023-06-26T17:27:13;27.30;1.00
780;DHT22;373;49.342;8.146;2023-06-26T17:29:44;27.30;1.00
780;DHT22;373;49.342;8.146;2023-06-26T17:32:11;27.20;1.00